Time;durP1;ratioP1;P1;durP2;ratioP2;P2;SDS_P1;SDS_P2;PMS_P1;PMS_P2;Temp;Humidity;BMP_temperature;BMP_pressure;BME280_temperature;BME280_humidity;BME280_pressure;Samples;Min_cycle;Max_cycle;Signal;HPM_P1;HPM_P2
2023/10/27 00:02:00;;;;;;;14.98;7.97;;;10.50;99.90;;;;;;4208532;28;20392;-82
2023/10/27 00:04:01;;;;;;;15.73;9.05;;;10.50;99.90;;;;;;4208359;28;20048;-82
2023/10/27 00:06:02;;;;;;;14.90;7.43;;;10.40;99.90;;;;;;4200809;28;20053;-82
2023/10/27 00:08:03;;;;;;;19.27;8.82;;;10.50;99.90;;;;;;4199871;28;20072;-82
2023/10/27 00:10:04;;;;;;;14.02;8.23;;;10.40;99.90;;;;;;4199643;28;20511;-82
2023/10/27 00:12:05;;;;;;;15.02;7.80;;;10.40;99.90;;;;;;4197433;28;20044;-82
2023/10/27 00:14:07;;;;;;;13.00;7.20;;;10.40;99.90;;;;;;4197862;28;20056;-82
2023/10/27 00:16:09;;;;;;;15.70;7.95;;;10.40;99.90;;;;;;4198940;28;20829;-82
2023/10/27 00:18:10;;;;;;;14.73;9.05;;;10.40;99.90;;;;;;4198773;28;20473;-82
2023/10/27 00:20:11;;;;;;;13.13;8.45;;;10.40;99.90;;;;;;4198982;28;20066;-82
2023/10/27 00:22:12;;;;;;;13.98;7.53;;;10.40;99.90;;;;;;4198269;28;20541;-80
2023/10/27 00:24:13;;;;;;;15.52;8.52;;;10.40;99.90;;;;;;4198677;28;20041;-80
2023/10/27 00:26:13;;;;;;;14.25;7.88;;;10.40;99.90;;;;;;4198771;28;20101;-80
2023/10/27 00:28:14;;;;;;;15.07;7.97;;;10.40;99.90;;;;;;4198754;28;20055;-80
2023/10/27 00:30:15;;;;;;;14.43;8.05;;;10.40;99.90;;;;;;4197961;28;20076;-81
2023/10/27 00:32:16;;;;;;;16.20;7.78;;;10.40;99.90;;;;;;4197876;28;20049;-81
2023/10/27 00:34:17;;;;;;;12.68;7.18;;;10.40;99.90;;;;;;4198338;28;20539;-81
2023/10/27 00:36:17;;;;;;;16.48;8.23;;;10.40;99.90;;;;;;4197556;28;20048;-81
2023/10/27 00:38:19;;;;;;;14.43;7.55;;;10.40;99.90;;;;;;4199741;28;20040;-81
2023/10/27 00:40:21;;;;;;;16.73;7.13;;;10.40;99.90;;;;;;4209408;28;20052;-81
2023/10/27 00:42:21;;;;;;;14.80;7.43;;;10.40;99.90;;;;;;4203180;28;20488;-81
2023/10/27 00:44:22;;;;;;;15.93;8.02;;;10.40;99.90;;;;;;4197433;28;20040;-81
2023/10/27 00:46:25;;;;;;;16.40;7.97;;;10.40;99.90;;;;;;4197809;28;20444;-82
2023/10/27 00:48:26;;;;;;;13.55;7.25;;;10.40;99.90;;;;;;4196489;28;20080;-82
2023/10/27 00:50:27;;;;;;;14.18;7.65;;;10.40;99.90;;;;;;4196516;28;20493;-81
2023/10/27 00:52:29;;;;;;;17.10;7.22;;;10.40;99.90;;;;;;4197748;28;20040;-81
2023/10/27 00:54:30;;;;;;;22.02;8.57;;;10.40;99.90;;;;;;4196594;28;20528;-81
2023/10/27 00:56:31;;;;;;;15.57;7.50;;;10.40;99.90;;;;;;4196710;28;20083;-82
2023/10/27 00:58:32;;;;;;;15.63;7.60;;;10.40;99.90;;;;;;4197512;28;20044;-81
2023/10/27 01:00:33;;;;;;;15.85;8.55;;;10.40;99.90;;;;;;4196070;28;20057;-81
2023/10/27 01:02:34;;;;;;;16.17;7.97;;;10.30;99.90;;;;;;4197748;28;20051;-82
2023/10/27 01:04:34;;;;;;;15.23;7.95;;;10.40;99.90;;;;;;4197539;28;20044;-82
2023/10/27 01:06:35;;;;;;;14.77;8.23;;;10.30;99.90;;;;;;4196619;28;20048;-82
2023/10/27 01:08:36;;;;;;;14.05;8.02;;;10.40;99.90;;;;;;4196104;28;20056;-82
2023/10/27 01:10:37;;;;;;;17.33;8.88;;;10.30;99.90;;;;;;4198144;28;20124;-82
2023/10/27 01:12:38;;;;;;;17.20;8.30;;;10.40;99.90;;;;;;4198034;28;20040;-82
2023/10/27 01:14:39;;;;;;;16.63;8.43;;;10.30;99.90;;;;;;4214747;28;20036;-81
2023/10/27 01:16:40;;;;;;;19.48;7.50;;;10.40;99.90;;;;;;4213901;28;20047;-81
2023/10/27 01:18:40;;;;;;;20.02;8.20;;;10.40;99.90;;;;;;4214707;28;20044;-81
2023/10/27 01:20:41;;;;;;;14.02;7.60;;;10.40;99.90;;;;;;4214424;28;20051;-82
2023/10/27 01:22:49;;;;;;;13.70;8.43;;;10.40;99.90;;;;;;4216085;28;20044;-81
2023/10/27 01:24:50;;;;;;;15.70;8.25;;;10.40;99.90;;;;;;4217021;28;20054;-81
2023/10/27 01:26:51;;;;;;;19.38;8.05;;;10.40;99.90;;;;;;4214195;28;20089;-82
2023/10/27 01:28:52;;;;;;;15.00;8.13;;;10.40;99.90;;;;;;4213917;28;20544;-81
2023/10/27 01:30:52;;;;;;;14.07;7.32;;;10.40;99.90;;;;;;4215351;28;20396;-81
2023/10/27 01:32:53;;;;;;;17.42;9.23;;;9.80;99.90;;;;;;4224380;28;20120;-81
2023/10/27 01:34:54;;;;;;;17.88;8.77;;;10.40;99.90;;;;;;4224122;28;20055;-81
2023/10/27 01:36:55;;;;;;;20.13;9.38;;;10.30;99.90;;;;;;4214179;28;20047;-81
2023/10/27 01:38:55;;;;;;;15.80;9.02;;;10.30;99.90;;;;;;4214139;28;20511;-81
2023/10/27 01:40:56;;;;;;;15.68;8.25;;;10.30;99.90;;;;;;4214089;28;20036;-81
2023/10/27 01:42:57;;;;;;;13.68;8.35;;;10.30;99.90;;;;;;4216291;28;20127;-81
2023/10/27 01:44:58;;;;;;;13.93;8.68;;;10.30;99.90;;;;;;4223759;28;20040;-81
2023/10/27 01:47:00;;;;;;;15.45;9.27;;;10.20;99.90;;;;;;4216972;28;20047;-81
2023/10/27 01:49:01;;;;;;;15.35;8.50;;;10.30;99.90;;;;;;4217088;28;20056;-82
2023/10/27 01:51:03;;;;;;;16.17;7.88;;;10.30;99.90;;;;;;4216739;28;20539;-81
2023/10/27 01:53:05;;;;;;;20.08;8.88;;;10.20;99.90;;;;;;4215768;28;20490;-81
2023/10/27 01:55:05;;;;;;;15.15;8.65;;;10.20;99.90;;;;;;4217100;28;20059;-81
2023/10/27 01:57:06;;;;;;;15.52;8.68;;;10.20;99.90;;;;;;4217122;28;20076;-81
2023/10/27 01:59:07;;;;;;;16.05;9.30;;;10.20;99.90;;;;;;4217151;28;20044;-81
2023/10/27 02:01:08;;;;;;;19.95;9.48;;;10.20;99.90;;;;;;4227445;28;20056;-82
2023/10/27 02:03:08;;;;;;;18.95;9.35;;;10.20;99.90;;;;;;4234624;28;20102;-82
2023/10/27 02:05:09;;;;;;;20.67;9.48;;;10.20;99.90;;;;;;4233978;28;20083;-81
2023/10/27 02:07:10;;;;;;;15.23;9.05;;;10.20;99.90;;;;;;4234294;28;20403;-81
2023/10/27 02:09:11;;;;;;;16.45;8.48;;;10.20;99.90;;;;;;4216135;28;20044;-81
2023/10/27 02:11:11;;;;;;;15.20;8.38;;;10.20;99.90;;;;;;4233575;28;20070;-82
2023/10/27 02:13:13;;;;;;;14.30;8.45;;;10.20;99.90;;;;;;4233786;28;20488;-82
2023/10/27 02:15:13;;;;;;;16.73;8.77;;;10.20;99.90;;;;;;4233661;28;20372;-81
2023/10/27 02:17:14;;;;;;;14.70;8.38;;;10.20;99.90;;;;;;4233310;28;20104;-82
2023/10/27 02:19:15;;;;;;;15.63;8.32;;;10.20;99.90;;;;;;4233634;28;20413;-81
2023/10/27 02:21:15;;;;;;;14.98;7.88;;;10.20;99.90;;;;;;4233118;28;20043;-81
2023/10/27 02:23:17;;;;;;;16.60;8.60;;;10.20;99.90;;;;;;4233461;28;20571;-81
2023/10/27 02:25:18;;;;;;;16.33;9.10;;;10.20;99.90;;;;;;4233127;28;20035;-81
2023/10/27 02:27:18;;;;;;;16.88;8.63;;;10.20;99.90;;;;;;4233422;28;20048;-81
2023/10/27 02:29:20;;;;;;;14.38;7.43;;;10.20;99.90;;;;;;4215438;28;20048;-81
2023/10/27 02:31:21;;;;;;;14.70;7.85;;;10.20;99.90;;;;;;4233426;28;20065;-82
2023/10/27 02:33:22;;;;;;;15.80;8.50;;;10.20;99.90;;;;;;4233481;28;20384;-81
2023/10/27 02:35:25;;;;;;;14.57;8.32;;;10.20;99.90;;;;;;4233361;28;20047;-81
2023/10/27 02:37:26;;;;;;;14.93;8.40;;;10.20;99.90;;;;;;4233077;28;20051;-81
2023/10/27 02:39:27;;;;;;;14.60;8.55;;;10.20;99.90;;;;;;4233083;28;20040;-81
2023/10/27 02:41:28;;;;;;;14.63;7.90;;;10.20;99.90;;;;;;4232822;28;20039;-81
2023/10/27 02:43:29;;;;;;;16.05;8.75;;;10.20;99.90;;;;;;4233002;28;20097;-81
2023/10/27 02:45:30;;;;;;;17.00;9.10;;;10.20;99.90;;;;;;4233114;28;20039;-81
2023/10/27 02:47:31;;;;;;;15.00;8.80;;;10.20;99.90;;;;;;4232468;28;20082;-82
2023/10/27 02:49:31;;;;;;;15.38;7.65;;;10.10;99.90;;;;;;4214807;28;20451;-81
2023/10/27 02:51:32;;;;;;;14.80;8.50;;;10.10;99.90;;;;;;4232959;28;20055;-81
2023/10/27 02:53:33;;;;;;;14.45;7.97;;;10.10;99.90;;;;;;4232752;28;20052;-81
2023/10/27 02:55:34;;;;;;;15.77;7.75;;;10.40;99.90;;;;;;4232744;28;20050;-81
2023/10/27 02:57:35;;;;;;;15.45;8.10;;;10.10;99.90;;;;;;4233016;28;20471;-81
2023/10/27 02:59:36;;;;;;;16.80;8.25;;;10.10;99.90;;;;;;4232543;28;20051;-81
2023/10/27 03:01:37;;;;;;;21.13;9.13;;;10.10;99.90;;;;;;4232430;28;20091;-81
2023/10/27 03:03:38;;;;;;;16.60;8.15;;;10.10;99.90;;;;;;4232886;28;20460;-81
2023/10/27 03:05:38;;;;;;;15.55;8.38;;;10.10;99.90;;;;;;4232834;28;20123;-81
2023/10/27 03:07:39;;;;;;;15.98;8.68;;;10.10;99.90;;;;;;4232108;28;20100;-81
2023/10/27 03:09:40;;;;;;;16.33;8.57;;;10.10;99.90;;;;;;4232712;28;20395;-81
2023/10/27 03:11:41;;;;;;;15.60;8.23;;;10.10;99.90;;;;;;4232077;28;20043;-82
2023/10/27 03:13:41;;;;;;;14.32;8.50;;;10.10;99.90;;;;;;4214540;28;20051;-81
2023/10/27 03:15:42;;;;;;;17.42;9.48;;;10.00;99.90;;;;;;4232623;28;20040;-81
2023/10/27 03:17:43;;;;;;;16.20;8.18;;;10.10;99.90;;;;;;4232775;28;20046;-81
2023/10/27 03:19:44;;;;;;;16.90;8.52;;;10.10;99.90;;;;;;4232745;28;20051;-81
2023/10/27 03:21:45;;;;;;;15.27;8.07;;;10.10;99.90;;;;;;4232460;28;20044;-81
2023/10/27 03:23:45;;;;;;;15.25;8.27;;;10.00;99.90;;;;;;4232003;28;20048;-81
2023/10/27 03:25:46;;;;;;;17.15;8.98;;;10.10;99.90;;;;;;4232560;28;20424;-81
2023/10/27 03:27:47;;;;;;;19.95;9.02;;;10.10;99.90;;;;;;4232427;28;20050;-81
2023/10/27 03:29:48;;;;;;;18.15;9.13;;;10.00;99.90;;;;;;4232361;28;20051;-81
2023/10/27 03:31:50;;;;;;;16.40;8.52;;;10.00;99.90;;;;;;4231400;28;20056;-81
2023/10/27 03:33:51;;;;;;;16.08;8.70;;;10.00;99.90;;;;;;4232148;28;20068;-81
2023/10/27 03:35:52;;;;;;;16.30;8.75;;;10.20;99.90;;;;;;4232444;28;20071;-81
2023/10/27 03:37:53;;;;;;;16.90;8.18;;;10.00;99.90;;;;;;4231911;28;20100;-81
2023/10/27 03:39:54;;;;;;;17.00;8.65;;;10.00;99.90;;;;;;4213933;28;20047;-81
2023/10/27 03:41:54;;;;;;;19.95;8.93;;;10.00;99.90;;;;;;4231996;28;20857;-81
2023/10/27 03:43:56;;;;;;;16.67;9.18;;;10.00;99.90;;;;;;4232401;28;20047;-81
2023/10/27 03:45:56;;;;;;;14.02;8.27;;;10.20;99.90;;;;;;4232301;28;20057;-81
2023/10/27 03:47:57;;;;;;;20.23;8.52;;;10.00;99.90;;;;;;4232127;28;20138;-82
2023/10/27 03:49:58;;;;;;;21.08;9.52;;;10.00;99.90;;;;;;4232204;28;20151;-81
2023/10/27 03:51:59;;;;;;;16.15;8.50;;;10.00;99.90;;;;;;4231517;28;20043;-82
2023/10/27 03:54:00;;;;;;;18.00;8.65;;;9.90;99.90;;;;;;4214076;28;20087;-81
2023/10/27 03:56:00;;;;;;;16.42;8.65;;;9.90;99.90;;;;;;4232034;28;20070;-81
2023/10/27 03:58:15;;;;;;;16.60;8.50;;;9.90;99.90;;;;;;4231967;28;20124;-83
2023/10/27 04:00:16;;;;;;;17.17;8.27;;;9.90;99.90;;;;;;4231292;28;20169;-81
2023/10/27 04:02:17;;;;;;;18.70;9.55;;;9.90;99.90;;;;;;4231909;28;20108;-81
2023/10/27 04:04:17;;;;;;;15.70;8.50;;;9.90;99.90;;;;;;4213981;28;20044;-82
2023/10/27 04:06:18;;;;;;;18.55;9.38;;;9.90;99.90;;;;;;4231190;28;20048;-82
2023/10/27 04:08:20;;;;;;;17.88;8.27;;;9.80;99.90;;;;;;4231494;28;20495;-80
2023/10/27 04:10:21;;;;;;;19.50;9.13;;;9.80;99.90;;;;;;4196798;28;20045;-82
2023/10/27 04:12:22;;;;;;;15.15;8.98;;;9.90;99.90;;;;;;4231793;28;20044;-82
2023/10/27 04:14:23;;;;;;;16.48;9.20;;;9.80;99.90;;;;;;4231871;28;20146;-82
2023/10/27 04:16:24;;;;;;;18.02;8.48;;;9.80;99.90;;;;;;4231833;28;20126;-82
2023/10/27 04:18:24;;;;;;;14.02;8.25;;;9.80;99.90;;;;;;4231820;28;20044;-81
2023/10/27 04:20:26;;;;;;;17.42;9.48;;;9.80;99.90;;;;;;4231192;28;20096;-81
2023/10/27 04:22:27;;;;;;;15.02;8.18;;;9.80;99.90;;;;;;4231397;28;20052;-81
2023/10/27 04:24:28;;;;;;;19.05;9.13;;;9.80;99.90;;;;;;4231652;28;20559;-81
2023/10/27 04:26:30;;;;;;;15.57;8.43;;;9.80;99.90;;;;;;4231494;28;20141;-81
2023/10/27 04:28:30;;;;;;;16.92;8.80;;;9.80;99.90;;;;;;4231379;28;20050;-81
2023/10/27 04:30:31;;;;;;;16.65;9.00;;;9.70;99.90;;;;;;4231808;28;20453;-82
2023/10/27 04:32:34;;;;;;;16.70;8.85;;;9.80;99.90;;;;;;4231455;28;20074;-82
2023/10/27 04:34:35;;;;;;;15.68;8.88;;;9.70;99.90;;;;;;4212956;28;20048;-82
2023/10/27 04:36:36;;;;;;;17.25;9.25;;;9.70;99.90;;;;;;4213438;28;20051;-82
2023/10/27 04:38:37;;;;;;;19.20;9.02;;;9.70;99.90;;;;;;4231464;28;20070;-82
2023/10/27 04:40:37;;;;;;;15.65;9.07;;;9.70;99.90;;;;;;4231244;28;20043;-82
2023/10/27 04:42:38;;;;;;;16.02;8.52;;;9.90;99.90;;;;;;4231218;28;20491;-81
2023/10/27 04:44:39;;;;;;;17.77;9.07;;;9.70;99.90;;;;;;4231550;28;20083;-82
2023/10/27 04:46:40;;;;;;;17.90;8.43;;;9.70;99.90;;;;;;4231392;28;20035;-82
2023/10/27 04:48:40;;;;;;;17.65;9.40;;;9.70;99.90;;;;;;4230985;28;20105;-82
2023/10/27 04:50:41;;;;;;;16.38;8.30;;;9.60;99.90;;;;;;4231296;28;20048;-82
2023/10/27 04:52:42;;;;;;;18.23;8.93;;;9.60;99.90;;;;;;4212528;28;20082;-82
2023/10/27 04:54:43;;;;;;;15.50;8.05;;;9.60;99.90;;;;;;4231293;28;20047;-82
2023/10/27 04:56:44;;;;;;;15.45;9.13;;;9.60;99.90;;;;;;4213262;28;20796;-82
2023/10/27 04:58:46;;;;;;;18.20;9.20;;;9.60;99.90;;;;;;4231308;28;20058;-82
2023/10/27 05:00:47;;;;;;;17.15;8.75;;;9.60;99.90;;;;;;4230586;28;20059;-82
2023/10/27 05:02:47;;;;;;;15.13;8.63;;;9.50;99.90;;;;;;4231369;28;20052;-82
2023/10/27 05:04:48;;;;;;;18.00;8.25;;;9.50;99.90;;;;;;4231234;28;20038;-82
2023/10/27 05:06:49;;;;;;;14.27;8.07;;;9.50;99.90;;;;;;4231304;28;20040;-82
2023/10/27 05:08:50;;;;;;;15.65;8.77;;;9.50;99.90;;;;;;4231258;28;20047;-82
2023/10/27 05:10:52;;;;;;;15.55;8.85;;;9.50;99.90;;;;;;4226021;28;20400;-82
2023/10/27 05:12:53;;;;;;;16.45;8.20;;;9.50;99.90;;;;;;4196006;28;20060;-82
2023/10/27 05:14:54;;;;;;;14.80;8.35;;;9.50;99.90;;;;;;4214479;28;20040;-82
2023/10/27 05:16:55;;;;;;;16.77;9.23;;;9.50;99.90;;;;;;4214713;28;20127;-82
2023/10/27 05:18:55;;;;;;;17.17;8.95;;;9.40;99.90;;;;;;4217486;28;20036;-82
2023/10/27 05:20:56;;;;;;;18.98;9.13;;;9.40;99.90;;;;;;4217372;28;20492;-82
2023/10/27 05:22:58;;;;;;;16.70;8.82;;;9.50;99.90;;;;;;4217740;28;20076;-82
2023/10/27 05:25:01;;;;;;;15.95;9.00;;;9.50;99.90;;;;;;4217480;28;20156;-82
2023/10/27 05:27:02;;;;;;;19.05;8.68;;;9.70;99.90;;;;;;4217693;28;20400;-80
2023/10/27 05:29:02;;;;;;;17.00;8.40;;;9.50;99.90;;;;;;4199657;28;20037;-80
2023/10/27 05:31:03;;;;;;;15.07;8.10;;;9.50;99.90;;;;;;4217622;28;20101;-83
2023/10/27 05:33:04;;;;;;;18.38;8.15;;;9.60;99.90;;;;;;4198985;28;20080;-80
2023/10/27 05:35:05;;;;;;;17.75;9.07;;;9.50;99.90;;;;;;4217563;28;20048;-80
2023/10/27 05:37:06;;;;;;;15.65;8.55;;;9.60;99.90;;;;;;4217557;28;20109;-81
2023/10/27 05:39:07;;;;;;;17.40;8.25;;;9.60;99.90;;;;;;4217333;28;20521;-80
2023/10/27 05:41:08;;;;;;;13.95;7.72;;;9.60;99.90;;;;;;4217471;28;20476;-80
2023/10/27 05:43:08;;;;;;;14.65;8.20;;;9.60;99.90;;;;;;4216960;28;20115;-80
2023/10/27 05:45:13;;;;;;;15.43;7.95;;;9.60;99.90;;;;;;4217347;28;20440;-80
2023/10/27 05:47:15;;;;;;;14.45;7.85;;;9.70;99.90;;;;;;4217206;28;20404;-80
2023/10/27 05:49:16;;;;;;;14.40;7.05;;;9.70;99.90;;;;;;4224210;28;20368;-80
2023/10/27 05:51:17;;;;;;;15.88;7.60;;;9.70;99.90;;;;;;4215285;28;20048;-81
2023/10/27 05:53:18;;;;;;;15.63;7.53;;;9.60;99.90;;;;;;4234296;28;20035;-81
2023/10/27 05:55:18;;;;;;;17.10;7.45;;;9.70;99.90;;;;;;4215902;28;20052;-81
2023/10/27 05:57:20;;;;;;;17.30;7.10;;;9.70;99.90;;;;;;4233657;28;20054;-81
2023/10/27 05:59:20;;;;;;;15.27;7.80;;;9.70;99.90;;;;;;4216100;28;20044;-81
2023/10/27 06:01:21;;;;;;;14.55;7.63;;;9.70;99.90;;;;;;4233452;28;20093;-81
2023/10/27 06:03:22;;;;;;;15.00;7.63;;;9.70;99.90;;;;;;4233801;28;20381;-81
2023/10/27 06:05:23;;;;;;;12.60;6.90;;;9.70;99.90;;;;;;4233364;28;20479;-80
2023/10/27 06:07:23;;;;;;;12.25;7.50;;;9.80;99.90;;;;;;4233834;28;20518;-81
2023/10/27 06:09:24;;;;;;;15.07;7.72;;;9.70;99.90;;;;;;4233821;28;20039;-81
2023/10/27 06:11:25;;;;;;;13.40;7.22;;;9.70;99.90;;;;;;4233790;28;20047;-81
2023/10/27 06:13:26;;;;;;;13.25;7.50;;;9.80;99.90;;;;;;4233838;28;20054;-81
2023/10/27 06:15:27;;;;;;;13.77;7.63;;;9.70;99.90;;;;;;4215382;28;20067;-81
2023/10/27 06:17:27;;;;;;;16.52;7.63;;;9.70;99.90;;;;;;4215021;28;20419;-81
2023/10/27 06:19:30;;;;;;;15.90;8.00;;;9.70;99.90;;;;;;4233757;28;20044;-81
2023/10/27 06:21:32;;;;;;;12.57;7.03;;;9.70;99.90;;;;;;4215155;28;20521;-81
2023/10/27 06:23:32;;;;;;;23.80;7.60;;;9.70;99.90;;;;;;4233595;28;20118;-81
2023/10/27 06:25:33;;;;;;;13.13;7.47;;;9.70;99.90;;;;;;4233176;28;20054;-82
2023/10/27 06:27:36;;;;;;;15.38;8.25;;;9.80;99.90;;;;;;4233478;28;20487;-81
2023/10/27 06:29:37;;;;;;;14.07;7.07;;;9.80;99.90;;;;;;4232603;28;20048;-81
2023/10/27 06:31:38;;;;;;;17.67;8.80;;;9.80;99.90;;;;;;4233222;28;20050;-81
2023/10/27 06:33:39;;;;;;;15.85;8.02;;;9.70;99.90;;;;;;4233024;28;20048;-81
2023/10/27 06:35:40;;;;;;;13.15;7.35;;;9.80;99.90;;;;;;4233017;28;20483;-81
2023/10/27 06:37:41;;;;;;;14.02;7.32;;;9.80;99.90;;;;;;4214793;28;20512;-82
2023/10/27 06:39:41;;;;;;;11.88;7.43;;;9.80;99.90;;;;;;4233041;28;20050;-81
2023/10/27 06:41:42;;;;;;;14.00;8.20;;;9.80;99.90;;;;;;4221909;28;20392;-81
2023/10/27 06:43:43;;;;;;;17.48;7.97;;;9.80;99.90;;;;;;4216229;28;20066;-81
2023/10/27 06:45:44;;;;;;;16.27;8.45;;;9.80;99.90;;;;;;4185430;28;20048;-80
2023/10/27 06:47:45;;;;;;;16.90;7.97;;;9.80;99.90;;;;;;4217893;28;20040;-81
2023/10/27 06:49:46;;;;;;;14.93;7.38;;;9.80;99.90;;;;;;4215959;28;20093;-81
2023/10/27 06:51:47;;;;;;;14.82;7.65;;;9.80;99.90;;;;;;4216001;28;20037;-81
2023/10/27 06:53:48;;;;;;;15.27;7.15;;;9.70;99.90;;;;;;4216019;28;20044;-81
2023/10/27 06:55:49;;;;;;;15.27;7.40;;;9.80;99.90;;;;;;4216083;28;20507;-81
2023/10/27 06:57:50;;;;;;;15.35;8.13;;;9.80;99.90;;;;;;4216739;28;20572;-81
2023/10/27 06:59:51;;;;;;;16.60;8.02;;;10.20;99.90;;;;;;4222328;28;20558;-81
2023/10/27 07:01:52;;;;;;;15.30;7.68;;;9.80;99.90;;;;;;4197495;28;20062;-81
2023/10/27 07:03:53;;;;;;;14.75;8.18;;;9.80;99.90;;;;;;4215493;28;20040;-81
2023/10/27 07:05:54;;;;;;;16.30;7.85;;;9.80;99.90;;;;;;4216035;28;20055;-81
2023/10/27 07:07:54;;;;;;;15.13;7.95;;;9.90;99.90;;;;;;4216161;28;20044;-81
2023/10/27 07:09:55;;;;;;;13.80;8.40;;;9.90;99.90;;;;;;4218985;28;20084;-80
2023/10/27 07:11:56;;;;;;;13.90;7.75;;;9.80;99.90;;;;;;4215039;28;20079;-81
2023/10/27 07:13:57;;;;;;;15.07;8.43;;;9.90;99.90;;;;;;4215523;28;20404;-81
2023/10/27 07:15:58;;;;;;;14.75;8.38;;;9.90;99.90;;;;;;4197462;28;20109;-81
2023/10/27 07:17:58;;;;;;;13.13;7.78;;;9.80;99.90;;;;;;4215657;28;20385;-81
2023/10/27 07:19:59;;;;;;;12.77;7.40;;;9.90;99.90;;;;;;4215720;28;20512;-81
2023/10/27 07:22:00;;;;;;;15.43;8.20;;;9.90;99.90;;;;;;4215275;28;20119;-81
2023/10/27 07:24:01;;;;;;;16.58;7.70;;;9.90;99.90;;;;;;4218950;28;20040;-81
2023/10/27 07:26:11;;;;;;;13.88;7.95;;;9.90;99.90;;;;;;4215253;28;20055;-81
2023/10/27 07:28:13;;;;;;;14.00;8.23;;;9.90;99.90;;;;;;4215201;28;20415;-81
2023/10/27 07:30:13;;;;;;;15.32;7.13;;;9.90;99.90;;;;;;4215494;28;20085;-81
2023/10/27 07:32:14;;;;;;;12.98;6.80;;;9.90;99.90;;;;;;4215276;28;20111;-81
2023/10/27 07:34:15;;;;;;;15.07;7.63;;;9.90;99.90;;;;;;4180592;28;20186;-81
2023/10/27 07:36:16;;;;;;;13.73;7.45;;;9.90;99.90;;;;;;4215353;28;20458;-81
2023/10/27 07:38:16;;;;;;;16.17;7.35;;;9.90;99.90;;;;;;4215555;28;20491;-81
2023/10/27 07:40:17;;;;;;;12.10;7.28;;;9.90;99.90;;;;;;4214338;28;20126;-81
2023/10/27 07:42:18;;;;;;;12.32;7.22;;;9.90;99.90;;;;;;4214438;28;20448;-81
2023/10/27 07:44:19;;;;;;;12.63;6.68;;;9.90;99.90;;;;;;4215108;28;20055;-81
2023/10/27 07:46:19;;;;;;;13.73;6.68;;;9.90;99.90;;;;;;4215019;28;20450;-81
2023/10/27 07:48:21;;;;;;;11.32;6.13;;;9.90;99.90;;;;;;4215246;28;20384;-81
2023/10/27 07:50:22;;;;;;;10.85;6.47;;;10.10;99.90;;;;;;4215244;28;20557;-81
2023/10/27 07:52:23;;;;;;;10.65;5.38;;;9.90;99.90;;;;;;4214784;28;20044;-81
2023/10/27 07:54:23;;;;;;;10.43;5.78;;;10.00;99.90;;;;;;4215292;28;20047;-81
2023/10/27 07:56:24;;;;;;;8.98;5.30;;;10.00;99.90;;;;;;4215358;28;20077;-80
2023/10/27 07:58:26;;;;;;;10.43;5.50;;;10.00;99.90;;;;;;4197169;28;20048;-80
2023/10/27 08:00:26;;;;;;;9.88;4.60;;;10.00;99.90;;;;;;4214499;28;20086;-80
2023/10/27 08:02:28;;;;;;;8.20;4.95;;;10.00;99.90;;;;;;4215116;28;20048;-80
2023/10/27 08:04:32;;;;;;;7.25;4.68;;;10.00;99.90;;;;;;4214526;28;20044;-80
2023/10/27 08:06:33;;;;;;;9.23;4.88;;;10.00;99.90;;;;;;4215077;28;20044;-81
2023/10/27 08:08:37;;;;;;;8.70;4.55;;;10.00;99.90;;;;;;4215148;28;20101;-80
2023/10/27 08:10:38;;;;;;;9.27;4.93;;;10.00;99.90;;;;;;4214942;28;20051;-81
2023/10/27 08:12:39;;;;;;;8.70;4.63;;;10.00;99.90;;;;;;4196943;28;20048;-81
2023/10/27 08:14:39;;;;;;;6.95;4.53;;;10.10;99.90;;;;;;4214656;28;20036;-81
2023/10/27 08:16:40;;;;;;;7.10;4.28;;;10.10;99.90;;;;;;4214952;28;20188;-80
2023/10/27 08:18:41;;;;;;;6.75;4.18;;;10.10;99.90;;;;;;4196882;28;20050;-81
2023/10/27 08:20:42;;;;;;;7.85;4.00;;;10.10;99.90;;;;;;4215572;28;20040;-80
2023/10/27 08:22:43;;;;;;;13.50;6.40;;;10.10;99.90;;;;;;4185033;28;20045;-81
2023/10/27 08:24:44;;;;;;;9.02;5.28;;;10.10;99.90;;;;;;4215238;28;20373;-80
2023/10/27 08:26:45;;;;;;;8.82;4.60;;;10.10;99.90;;;;;;4214836;28;20484;-80
2023/10/27 08:28:46;;;;;;;8.55;4.57;;;10.10;99.90;;;;;;4212546;28;20166;-80
2023/10/27 08:30:48;;;;;;;8.55;4.93;;;10.20;99.90;;;;;;4215308;28;20123;-80
2023/10/27 08:32:58;;;;;;;11.02;4.28;;;10.20;99.90;;;;;;4197384;28;20049;-80
2023/10/27 08:34:59;;;;;;;7.85;4.20;;;10.20;99.90;;;;;;4214791;28;20048;-80
2023/10/27 08:36:59;;;;;;;8.18;4.38;;;10.30;99.90;;;;;;4196841;28;20543;-80
2023/10/27 08:39:00;;;;;;;9.82;4.72;;;10.30;99.90;;;;;;4214491;28;20442;-81
2023/10/27 08:41:02;;;;;;;10.05;5.40;;;10.20;99.90;;;;;;4214129;28;20234;-80
2023/10/27 08:43:03;;;;;;;9.20;5.18;;;10.30;99.90;;;;;;4214585;28;20114;-80
2023/10/27 08:45:05;;;;;;;8.30;5.15;;;10.40;99.90;;;;;;4214697;28;20044;-80
2023/10/27 08:47:06;;;;;;;9.05;5.18;;;10.30;99.90;;;;;;4214070;28;20557;-80
2023/10/27 08:49:08;;;;;;;8.70;4.85;;;10.40;99.90;;;;;;4214394;28;20040;-80
2023/10/27 08:51:09;;;;;;;8.82;5.25;;;10.40;99.90;;;;;;4221160;28;20048;-81
2023/10/27 08:53:12;;;;;;;11.45;5.07;;;10.50;99.90;;;;;;4198364;28;20111;-81
2023/10/27 08:55:12;;;;;;;7.50;4.88;;;10.50;99.90;;;;;;4215123;28;20797;-80
2023/10/27 08:57:13;;;;;;;8.60;4.88;;;10.50;99.90;;;;;;4196477;28;20131;-80
2023/10/27 08:59:14;;;;;;;7.65;4.90;;;10.50;99.90;;;;;;4196431;28;20592;-80
2023/10/27 09:01:14;;;;;;;9.05;5.03;;;10.60;99.90;;;;;;4214217;28;20140;-80
2023/10/27 09:03:17;;;;;;;7.70;4.70;;;10.60;99.90;;;;;;4213674;28;20071;-80
2023/10/27 09:05:18;;;;;;;6.93;4.13;;;10.60;99.90;;;;;;4214211;28;20116;-80
2023/10/27 09:07:19;;;;;;;8.75;4.15;;;10.70;99.90;;;;;;4214203;28;20044;-79
2023/10/27 09:09:20;;;;;;;6.78;4.30;;;10.60;99.90;;;;;;4214104;28;20043;-80
2023/10/27 09:11:21;;;;;;;7.10;4.45;;;10.70;99.90;;;;;;4214292;28;20051;-80
2023/10/27 09:13:23;;;;;;;6.20;4.10;;;10.70;99.90;;;;;;4213243;28;20066;-81
2023/10/27 09:15:23;;;;;;;9.70;3.92;;;10.70;99.90;;;;;;4195842;28;20090;-79
2023/10/27 09:17:24;;;;;;;27.30;5.82;;;10.80;99.90;;;;;;4195969;28;20048;-80
2023/10/27 09:19:26;;;;;;;5.65;3.83;;;10.90;99.90;;;;;;4213808;28;20119;-80
2023/10/27 09:21:30;;;;;;;6.25;4.03;;;10.80;99.90;;;;;;4213779;28;20043;-80
2023/10/27 09:23:47;;;;;;;6.78;3.72;;;10.90;99.90;;;;;;4214090;28;20052;-80
2023/10/27 09:25:48;;;;;;;6.05;4.13;;;11.00;99.90;;;;;;4195387;28;20116;-79
2023/10/27 09:27:49;;;;;;;5.97;4.10;;;10.90;99.90;;;;;;4214140;28;20048;-79
2023/10/27 09:29:51;;;;;;;8.02;3.70;;;10.90;99.90;;;;;;4212958;28;20052;-78
2023/10/27 09:31:52;;;;;;;6.55;4.30;;;11.00;99.90;;;;;;4214050;28;20051;-84
2023/10/27 09:33:53;;;;;;;8.13;3.53;;;10.90;99.90;;;;;;4214107;28;20052;-81
2023/10/27 09:35:54;;;;;;;5.72;3.83;;;11.00;99.90;;;;;;4213878;28;20048;-82
2023/10/27 09:37:55;;;;;;;5.43;3.40;;;11.10;99.90;;;;;;4213939;28;20040;-81
2023/10/27 09:39:56;;;;;;;4.90;3.40;;;11.00;99.90;;;;;;4218208;28;20047;-81
2023/10/27 09:42:04;;;;;;;5.18;3.22;;;11.10;99.90;;;;;;4225633;28;20047;-81
2023/10/27 09:44:07;;;;;;;5.03;3.40;;;11.00;99.90;;;;;;4212707;28;20516;-83
2023/10/27 09:46:13;;;;;;;5.57;3.38;;;11.00;99.90;;;;;;4230658;28;20044;-84
2023/10/27 09:48:15;;;;;;;5.05;3.28;;;11.10;99.90;;;;;;4230191;28;20052;-82
2023/10/27 09:50:24;;;;;;;4.85;3.10;;;11.10;99.90;;;;;;4212912;28;20044;-82
2023/10/27 09:52:28;;;;;;;4.25;2.78;;;11.10;99.90;;;;;;4212739;28;20515;-82
2023/10/27 09:54:33;;;;;;;5.22;3.28;;;11.10;99.90;;;;;;4230785;28;20044;-82
2023/10/27 09:56:34;;;;;;;4.00;2.92;;;11.10;99.90;;;;;;4212399;28;20047;-81
2023/10/27 09:58:35;;;;;;;5.20;2.90;;;11.20;99.90;;;;;;4196602;28;20052;-81
2023/10/27 10:00:37;;;;;;;12.65;3.35;;;11.20;99.90;;;;;;4195606;28;20052;-80
2023/10/27 10:02:38;;;;;;;5.63;3.38;;;11.30;99.90;;;;;;4213522;28;20141;-80
2023/10/27 10:04:50;;;;;;;4.60;3.03;;;11.30;99.90;;;;;;4197709;28;20496;-81
2023/10/27 10:06:51;;;;;;;6.20;3.17;;;11.40;99.90;;;;;;4199379;28;20090;-80
2023/10/27 10:09:09;;;;;;;4.60;3.05;;;11.40;99.90;;;;;;4199160;28;20045;-81
2023/10/27 10:11:15;;;;;;;4.50;3.15;;;11.40;99.90;;;;;;4198241;28;20471;-81
2023/10/27 10:13:17;;;;;;;5.53;3.00;;;11.40;99.90;;;;;;4216834;28;20526;-81
2023/10/27 10:15:19;;;;;;;4.75;2.80;;;11.50;99.90;;;;;;4216847;28;20132;-81
2023/10/27 10:17:39;;;;;;;4.50;2.55;;;11.50;99.90;;;;;;4198768;28;20053;-81
2023/10/27 10:19:50;;;;;;;4.45;2.95;;;11.60;99.90;;;;;;4198624;28;20045;-81
2023/10/27 10:21:51;;;;;;;4.20;2.75;;;11.60;99.90;;;;;;4198266;28;20054;-81
2023/10/27 10:23:52;;;;;;;3.00;2.15;;;11.60;99.90;;;;;;4198639;28;20127;-82
2023/10/27 10:25:56;;;;;;;5.05;2.92;;;11.60;99.90;;;;;;4198597;28;20048;-82
2023/10/27 10:28:09;;;;;;;3.80;2.75;;;11.70;99.90;;;;;;4198597;28;20119;-82
2023/10/27 10:30:20;;;;;;;5.88;2.80;;;11.70;99.90;;;;;;4216135;28;20492;-82